createdAt,value
2022-08-26T00:01:54.325Z,4.80
2022-08-26T00:04:23.651Z,4.90
2022-08-26T00:06:50.967Z,5.30
2022-08-26T00:09:18.028Z,4.17
2022-08-26T00:11:45.786Z,4.77
2022-08-26T00:14:13.708Z,4.93
2022-08-26T00:16:47.277Z,5.50
2022-08-26T00:19:20.723Z,4.33
2022-08-26T00:21:49.678Z,4.23
2022-08-26T00:24:19.158Z,6.10
2022-08-26T00:26:46.379Z,4.30
2022-08-26T00:29:13.608Z,4.87
2022-08-26T00:31:42.102Z,4.93
2022-08-26T00:34:11.268Z,4.00
2022-08-26T00:36:39.707Z,4.70
2022-08-26T00:39:08.449Z,4.23
2022-08-26T00:41:39.856Z,5.83
2022-08-26T00:44:11.127Z,5.17
2022-08-26T00:46:46.480Z,5.80
2022-08-26T00:49:19.844Z,5.30
2022-08-26T00:51:53.394Z,4.97
2022-08-26T00:54:26.771Z,4.50
2022-08-26T00:57:02.745Z,4.83
2022-08-26T00:59:32.989Z,4.83
2022-08-26T01:02:02.684Z,5.03
2022-08-26T01:04:33.470Z,4.93
2022-08-26T01:07:01.588Z,6.90
2022-08-26T01:09:29.899Z,5.50
2022-08-26T01:12:00.956Z,4.10
2022-08-26T01:14:32.657Z,4.50
2022-08-26T01:17:02.917Z,5.43
2022-08-26T01:19:38.064Z,4.30
2022-08-26T01:22:30.570Z,3.97
2022-08-26T01:25:00.638Z,4.70
2022-08-26T01:27:32.914Z,5.70
2022-08-26T01:30:02.630Z,7.93
2022-08-26T01:32:33.205Z,4.20
2022-08-26T01:35:00.844Z,5.60
2022-08-26T01:37:34.588Z,5.23
2022-08-26T01:40:01.786Z,4.73
2022-08-26T01:42:29.806Z,5.60
2022-08-26T01:45:19.514Z,3.73
2022-08-26T01:47:48.692Z,5.07
2022-08-26T01:50:27.880Z,4.30
2022-08-26T01:52:59.497Z,4.30
2022-08-26T01:55:33.081Z,4.23
2022-08-26T01:58:04.746Z,4.50
2022-08-26T02:00:33.576Z,6.33
2022-08-26T02:03:21.484Z,4.73
2022-08-26T02:05:54.133Z,4.37
2022-08-26T02:08:31.077Z,4.63
2022-08-26T02:10:58.187Z,5.63
2022-08-26T02:13:29.982Z,5.57
2022-08-26T02:15:58.103Z,5.20
2022-08-26T02:18:25.878Z,4.70
2022-08-26T02:20:54.400Z,4.33
2022-08-26T02:23:21.256Z,5.53
2022-08-26T02:26:03.843Z,5.03
2022-08-26T02:28:35.848Z,6.07
2022-08-26T02:31:03.295Z,6.43
2022-08-26T02:33:31.926Z,5.80
2022-08-26T02:35:58.825Z,5.67
2022-08-26T02:38:26.112Z,4.67
2022-08-26T02:40:52.934Z,4.90
2022-08-26T02:43:19.819Z,6.10
2022-08-26T02:46:00.056Z,5.30
2022-08-26T02:48:28.482Z,5.63
2022-08-26T02:50:55.315Z,5.27
2022-08-26T02:53:25.418Z,6.33
2022-08-26T02:55:52.748Z,6.43
2022-08-26T02:58:20.601Z,4.70
2022-08-26T03:00:52.769Z,6.73
2022-08-26T03:03:20.778Z,4.43
2022-08-26T03:05:51.276Z,4.90
2022-08-26T03:08:18.189Z,4.63
2022-08-26T03:10:46.478Z,4.83
2022-08-26T03:13:15.596Z,4.20
2022-08-26T03:15:42.500Z,5.10
2022-08-26T03:18:09.774Z,4.30
2022-08-26T03:20:37.100Z,4.60
2022-08-26T03:23:04.031Z,6.13
2022-08-26T03:25:31.263Z,7.80
2022-08-26T03:27:59.439Z,5.70
2022-08-26T03:30:45.120Z,5.50
2022-08-26T03:33:13.737Z,4.90
2022-08-26T03:35:43.467Z,5.40
2022-08-26T03:38:10.863Z,5.53
2022-08-26T03:40:38.750Z,5.63
2022-08-26T03:43:09.859Z,5.50
2022-08-26T03:45:37.651Z,5.50
2022-08-26T03:48:05.433Z,4.93
2022-08-26T03:50:34.263Z,4.23
2022-08-26T03:53:03.978Z,4.43
2022-08-26T03:55:32.757Z,5.83
2022-08-26T03:58:00.780Z,4.87
2022-08-26T04:00:28.132Z,4.90
2022-08-26T04:02:55.514Z,4.93
2022-08-26T04:05:23.344Z,6.43
2022-08-26T04:07:50.814Z,5.53
2022-08-26T04:10:20.235Z,5.80
2022-08-26T04:12:47.260Z,6.10
2022-08-26T04:15:16.128Z,5.40
2022-08-26T04:17:44.625Z,5.93
2022-08-26T04:20:16.259Z,5.13
2022-08-26T04:22:43.277Z,4.90
2022-08-26T04:25:10.884Z,6.63
2022-08-26T04:27:37.786Z,6.00
2022-08-26T04:30:07.589Z,5.30
2022-08-26T04:32:35.649Z,5.30
2022-08-26T04:35:04.577Z,5.90
2022-08-26T04:37:31.512Z,6.63
2022-08-26T04:39:59.570Z,5.57
2022-08-26T04:42:26.463Z,4.50
2022-08-26T04:44:53.305Z,8.53
2022-08-26T04:47:20.133Z,6.33
2022-08-26T04:49:46.969Z,4.47
2022-08-26T04:52:13.728Z,6.50
2022-08-26T04:54:41.988Z,5.10
2022-08-26T04:57:08.930Z,6.20
2022-08-26T04:59:39.100Z,5.23
2022-08-26T05:02:06.891Z,6.13
2022-08-26T05:04:34.079Z,4.83
2022-08-26T05:07:02.834Z,5.27
2022-08-26T05:09:30.471Z,5.67
2022-08-26T05:11:57.408Z,6.33
2022-08-26T05:14:24.367Z,6.83
2022-08-26T05:16:51.748Z,4.50
2022-08-26T05:19:18.927Z,8.13
2022-08-26T05:21:47.743Z,6.87
2022-08-26T05:24:14.689Z,4.60
2022-08-26T05:26:42.151Z,5.47
2022-08-26T05:29:11.963Z,6.90
2022-08-26T05:31:38.781Z,7.70
2022-08-26T05:34:05.947Z,5.30
2022-08-26T05:36:35.611Z,5.70
2022-08-26T05:39:05.680Z,5.13
2022-08-26T05:41:36.394Z,4.93
2022-08-26T05:44:07.069Z,5.83
2022-08-26T05:46:35.088Z,5.20
2022-08-26T05:49:02.697Z,5.40
2022-08-26T05:51:31.018Z,6.00
2022-08-26T05:53:58.503Z,5.10
2022-08-26T05:56:27.423Z,5.20
2022-08-26T05:58:56.299Z,5.03
2022-08-26T06:01:26.952Z,5.90
2022-08-26T06:03:57.494Z,8.27
2022-08-26T06:06:29.373Z,6.23
2022-08-26T06:08:59.407Z,8.40
2022-08-26T06:11:28.682Z,7.50
2022-08-26T06:14:03.091Z,8.40
2022-08-26T06:16:38.605Z,6.00
2022-08-26T06:19:10.998Z,5.23
2022-08-26T06:21:40.036Z,6.93
2022-08-26T06:24:28.485Z,4.73
2022-08-26T06:26:57.918Z,5.55
2022-08-26T06:29:28.106Z,4.80
2022-08-26T06:31:56.679Z,5.65
2022-08-26T06:34:26.634Z,5.65
2022-08-26T06:37:02.462Z,6.95
2022-08-26T06:39:30.739Z,5.15
2022-08-26T06:41:59.369Z,5.50
2022-08-26T06:44:26.764Z,6.10
2022-08-26T06:46:53.851Z,5.80
2022-08-26T06:49:25.825Z,5.13
2022-08-26T06:51:58.343Z,7.07
2022-08-26T06:54:26.631Z,8.55
2022-08-26T06:56:53.717Z,6.85
2022-08-26T06:59:21.829Z,6.50
2022-08-26T07:01:49.822Z,8.05
2022-08-26T07:04:20.107Z,7.20
2022-08-26T07:06:52.415Z,4.88
2022-08-26T07:09:26.962Z,5.43
2022-08-26T07:11:56.275Z,5.45
2022-08-26T07:14:24.900Z,6.35
2022-08-26T07:16:53.453Z,4.65
2022-08-26T07:19:29.861Z,4.97
2022-08-26T07:22:03.898Z,5.00
2022-08-26T07:24:35.742Z,5.22
2022-08-26T07:27:08.786Z,5.32
2022-08-26T07:29:37.450Z,4.97
2022-08-26T07:32:05.155Z,5.22
2022-08-26T07:34:33.337Z,6.22
2022-08-26T07:37:00.599Z,5.32
2022-08-26T07:39:28.361Z,7.82
2022-08-26T07:42:01.340Z,5.45
2022-08-26T07:44:29.530Z,5.82
2022-08-26T07:46:56.611Z,4.40
2022-08-26T07:49:26.947Z,5.07
2022-08-26T07:51:55.942Z,5.25
2022-08-26T07:54:27.015Z,7.55
2022-08-26T07:56:55.913Z,6.40
2022-08-26T07:59:23.357Z,6.97
2022-08-26T08:01:50.668Z,7.57
2022-08-26T08:04:21.877Z,4.00
2022-08-26T08:06:53.794Z,5.85
2022-08-26T08:09:22.424Z,5.60
2022-08-26T08:11:49.860Z,4.85
2022-08-26T08:14:18.514Z,6.72
2022-08-26T08:16:51.279Z,5.72
2022-08-26T08:19:23.110Z,5.30
2022-08-26T08:21:50.803Z,5.30
2022-08-26T08:24:18.069Z,7.10
2022-08-26T08:26:45.927Z,5.03
2022-08-26T08:29:13.210Z,4.65
2022-08-26T08:31:58.420Z,5.43
2022-08-26T08:34:28.223Z,5.05
2022-08-26T08:36:56.197Z,5.63
2022-08-26T08:39:24.292Z,4.63
2022-08-26T08:41:56.922Z,5.28
2022-08-26T08:47:00.865Z,5.72
2022-08-26T08:49:28.389Z,5.50
2022-08-26T08:52:05.277Z,4.80
2022-08-26T08:54:33.875Z,6.40
2022-08-26T08:57:13.582Z,6.38
2022-08-26T08:59:53.258Z,6.32
2022-08-26T09:02:44.064Z,5.10
2022-08-26T09:05:23.052Z,9.35
2022-08-26T09:08:01.970Z,8.18
2022-08-26T09:10:47.147Z,7.28
2022-08-26T09:13:25.386Z,9.55
2022-08-26T09:16:10.105Z,8.70
2022-08-26T09:19:19.149Z,9.02
2022-08-26T09:21:46.496Z,10.48
2022-08-26T09:24:20.214Z,12.57
2022-08-26T09:26:49.776Z,14.68
2022-08-26T09:29:26.217Z,12.82
2022-08-26T09:32:16.082Z,15.52
2022-08-26T09:35:07.418Z,14.27
2022-08-26T09:37:43.587Z,13.77
2022-08-26T09:40:27.070Z,13.60
2022-08-26T09:43:09.662Z,14.77
2022-08-26T09:45:38.795Z,10.85
2022-08-26T09:48:06.716Z,11.43
2022-08-26T09:50:40.961Z,9.95
2022-08-26T09:53:14.855Z,13.10
2022-08-26T09:55:47.783Z,11.65
2022-08-26T09:58:38.078Z,11.80
2022-08-26T10:01:14.866Z,11.65
2022-08-26T10:03:43.331Z,9.27
2022-08-26T10:06:16.265Z,8.73
2022-08-26T10:08:47.418Z,10.05
2022-08-26T10:11:31.056Z,7.15
2022-08-26T10:14:08.509Z,7.28
2022-08-26T10:16:48.301Z,6.70
2022-08-26T10:19:29.083Z,6.68
2022-08-26T10:22:13.849Z,7.95
2022-08-26T10:24:55.856Z,9.40
2022-08-26T10:27:36.585Z,6.07
2022-08-26T10:30:17.276Z,8.10
2022-08-26T10:32:53.891Z,5.10
2022-08-26T10:35:21.291Z,8.50
2022-08-26T10:37:54.106Z,6.25
2022-08-26T10:40:26.496Z,8.15
2022-08-26T10:43:10.905Z,8.20
2022-08-26T10:45:46.576Z,8.32
2022-08-26T10:48:21.277Z,9.18
2022-08-26T10:50:49.113Z,6.45
2022-08-26T10:53:37.834Z,5.65
2022-08-26T10:56:46.412Z,10.50
2022-08-26T10:59:22.139Z,8.27
2022-08-26T11:02:03.880Z,7.57
2022-08-26T11:04:42.374Z,7.97
2022-08-26T11:07:44.259Z,6.00
2022-08-26T11:10:17.278Z,7.28
2022-08-26T11:12:45.344Z,7.85
2022-08-26T11:15:24.519Z,12.82
2022-08-26T11:17:51.682Z,10.07
2022-08-26T11:20:47.112Z,7.88
2022-08-26T11:23:16.939Z,11.05
2022-08-26T11:25:55.944Z,8.85
2022-08-26T11:28:44.542Z,8.85
2022-08-26T11:31:33.211Z,7.07
2022-08-26T11:34:08.852Z,10.07
2022-08-26T11:36:46.655Z,11.00
2022-08-26T11:39:19.637Z,10.57
2022-08-26T11:41:52.883Z,12.85
2022-08-26T11:44:26.275Z,8.35
2022-08-26T11:47:03.117Z,9.18
2022-08-26T11:49:31.768Z,9.30
2022-08-26T11:52:09.457Z,9.15
2022-08-26T11:54:36.462Z,10.73
2022-08-26T11:57:11.774Z,10.23
2022-08-26T11:59:41.083Z,8.88
2022-08-26T12:02:17.894Z,7.95
2022-08-26T12:04:49.479Z,8.70
2022-08-26T12:07:24.127Z,10.93
2022-08-26T12:10:04.697Z,8.73
2022-08-26T12:12:42.438Z,10.40
2022-08-26T12:15:14.505Z,8.82
2022-08-26T12:17:43.264Z,9.30
2022-08-26T12:20:20.723Z,9.20
2022-08-26T12:22:48.127Z,10.32
2022-08-26T12:25:24.068Z,9.75
2022-08-26T12:27:53.655Z,8.38
2022-08-26T12:30:26.231Z,9.00
2022-08-26T12:33:21.922Z,9.73
2022-08-26T12:35:54.781Z,8.98
2022-08-26T12:38:26.720Z,8.75
2022-08-26T12:40:53.681Z,9.95
2022-08-26T12:43:38.477Z,10.00
2022-08-26T12:46:06.659Z,11.90
2022-08-26T12:48:36.435Z,8.20
2022-08-26T12:51:06.020Z,12.60
2022-08-26T12:53:35.141Z,11.25
2022-08-26T12:56:17.142Z,10.70
2022-08-26T12:58:44.164Z,9.18
2022-08-26T13:01:11.020Z,10.05
2022-08-26T13:03:45.432Z,11.02
2022-08-26T13:06:22.439Z,10.00
2022-08-26T13:09:00.669Z,8.68
2022-08-26T13:11:32.678Z,10.07
2022-08-26T13:14:01.037Z,15.15
2022-08-26T13:16:29.139Z,10.13
2022-08-26T13:19:01.482Z,8.52
2022-08-26T13:21:29.942Z,10.30
2022-08-26T13:24:33.307Z,9.10
2022-08-26T13:27:01.769Z,7.72
2022-08-26T13:29:28.709Z,7.80
2022-08-26T13:31:55.700Z,10.52
2022-08-26T13:34:23.397Z,7.03
2022-08-26T13:36:52.426Z,6.03
2022-08-26T13:39:20.224Z,6.00
2022-08-26T13:41:47.283Z,9.52
2022-08-26T13:44:14.097Z,7.57
2022-08-26T13:46:41.078Z,8.38
2022-08-26T13:49:08.112Z,16.27
2022-08-26T13:51:35.683Z,13.38
2022-08-26T13:54:02.485Z,9.25
2022-08-26T13:56:29.875Z,7.85
2022-08-26T13:58:58.010Z,10.18
2022-08-26T14:01:25.304Z,10.40
2022-08-26T14:03:52.721Z,7.95
2022-08-26T14:06:25.222Z,10.15
2022-08-26T14:08:52.104Z,8.40
2022-08-26T14:11:20.463Z,7.57
2022-08-26T14:13:47.185Z,8.02
2022-08-26T14:16:33.298Z,7.78
2022-08-26T14:19:01.426Z,6.82
2022-08-26T14:21:31.106Z,7.68
2022-08-26T14:24:00.952Z,7.93
2022-08-26T14:26:29.763Z,6.85
2022-08-26T14:28:58.632Z,8.93
2022-08-26T14:31:26.904Z,5.50
2022-08-26T14:33:57.027Z,7.03
2022-08-26T14:36:31.273Z,4.70
2022-08-26T14:39:05.595Z,9.13
2022-08-26T14:41:34.414Z,15.38
2022-08-26T14:44:08.151Z,15.98
2022-08-26T14:46:42.413Z,8.18
2022-08-26T14:49:10.738Z,7.18
2022-08-26T14:51:38.704Z,8.23
2022-08-26T14:54:14.603Z,9.05
2022-08-26T14:56:49.190Z,6.80
2022-08-26T14:59:22.481Z,6.72
2022-08-26T15:01:50.145Z,10.65
2022-08-26T15:04:17.003Z,17.10
2022-08-26T15:06:44.225Z,14.70
2022-08-26T15:09:11.342Z,15.40
2022-08-26T15:11:38.153Z,34.30
2022-08-26T15:14:05.468Z,5.97
2022-08-26T15:16:32.622Z,5.75
2022-08-26T15:19:00.755Z,9.15
2022-08-26T15:21:27.570Z,7.10
2022-08-26T15:23:54.718Z,7.13
2022-08-26T15:26:23.050Z,5.63
2022-08-26T15:28:50.097Z,10.48
2022-08-26T15:31:17.664Z,6.80
2022-08-26T15:33:45.636Z,18.15
2022-08-26T15:36:12.399Z,9.60
2022-08-26T15:38:42.423Z,8.90
2022-08-26T15:41:10.212Z,6.25
2022-08-26T15:43:38.254Z,5.05
2022-08-26T15:46:10.985Z,8.40
2022-08-26T15:48:38.459Z,4.18
2022-08-26T15:51:06.852Z,7.70
2022-08-26T15:53:35.126Z,3.95
2022-08-26T15:56:02.252Z,9.70
2022-08-26T15:58:29.723Z,4.10
2022-08-26T16:00:57.567Z,4.85
2022-08-26T16:03:24.563Z,4.72
2022-08-26T16:05:51.548Z,10.48
2022-08-26T16:08:18.928Z,17.52
2022-08-26T16:10:50.348Z,15.77
2022-08-26T16:13:19.974Z,6.97
2022-08-26T16:15:50.001Z,5.78
2022-08-26T16:18:16.980Z,4.03
2022-08-26T16:20:55.327Z,3.00
2022-08-26T16:23:38.402Z,5.25
2022-08-26T16:26:10.576Z,5.93
2022-08-26T16:28:38.392Z,3.70
2022-08-26T16:31:06.565Z,7.88
2022-08-26T16:33:33.598Z,5.03
2022-08-26T16:36:00.404Z,3.95
2022-08-26T16:38:27.200Z,7.05
2022-08-26T16:40:53.948Z,4.25
2022-08-26T16:43:20.673Z,4.93
2022-08-26T16:45:47.382Z,3.95
2022-08-26T16:48:14.187Z,3.22
2022-08-26T16:50:41.871Z,4.28
2022-08-26T16:53:15.943Z,3.58
2022-08-26T16:55:50.134Z,3.70
2022-08-26T16:58:17.864Z,3.73
2022-08-26T17:00:45.320Z,3.70
2022-08-26T17:03:12.331Z,4.23
2022-08-26T17:05:40.128Z,3.13
2022-08-26T17:08:07.381Z,4.63
2022-08-26T17:10:34.592Z,3.03
2022-08-26T17:13:01.451Z,4.57
2022-08-26T17:15:28.528Z,4.80
2022-08-26T17:17:56.086Z,5.53
2022-08-26T17:20:24.749Z,3.10
2022-08-26T17:22:53.343Z,3.93
2022-08-26T17:25:24.044Z,3.27
2022-08-26T17:27:50.947Z,3.50
2022-08-26T17:30:18.065Z,3.67
2022-08-26T17:32:45.397Z,3.33
2022-08-26T17:35:13.721Z,3.60
2022-08-26T17:37:41.238Z,3.20
2022-08-26T17:40:12.589Z,2.90
2022-08-26T17:42:40.391Z,3.87
2022-08-26T17:45:08.568Z,3.57
2022-08-26T17:47:36.027Z,4.37
2022-08-26T17:50:04.492Z,3.87
2022-08-26T17:52:31.238Z,3.97
2022-08-26T17:54:58.936Z,6.57
2022-08-26T17:57:26.514Z,5.83
2022-08-26T17:59:54.361Z,4.13
2022-08-26T18:02:21.629Z,3.70
2022-08-26T18:04:48.839Z,3.17
2022-08-26T18:07:16.148Z,4.20
2022-08-26T18:09:43.589Z,4.50
2022-08-26T18:12:11.037Z,4.70
2022-08-26T18:14:38.520Z,5.27
2022-08-26T18:17:05.316Z,4.03
2022-08-26T18:19:32.141Z,6.00
2022-08-26T18:21:59.002Z,3.97
2022-08-26T18:24:25.850Z,6.87
2022-08-26T18:26:52.615Z,5.30
2022-08-26T18:29:20.003Z,6.27
2022-08-26T18:31:48.445Z,5.90
2022-08-26T18:34:19.691Z,6.47
2022-08-26T18:36:46.918Z,4.63
2022-08-26T18:39:15.234Z,6.20
2022-08-26T18:41:47.345Z,5.33
2022-08-26T18:44:16.492Z,5.40
2022-08-26T18:46:44.447Z,6.00
2022-08-26T18:49:12.993Z,4.87
2022-08-26T18:51:40.276Z,4.23
2022-08-26T18:54:07.699Z,7.33
2022-08-26T18:56:36.194Z,8.43
2022-08-26T18:59:05.162Z,5.43
2022-08-26T19:01:33.300Z,6.17
2022-08-26T19:04:02.789Z,7.77
2022-08-26T19:06:32.781Z,8.67
2022-08-26T19:09:00.371Z,5.90
2022-08-26T19:11:32.000Z,8.13
2022-08-26T19:14:07.253Z,8.53
2022-08-26T19:16:35.219Z,10.73
2022-08-26T19:19:02.653Z,8.90
2022-08-26T19:21:31.327Z,8.23
2022-08-26T19:23:59.488Z,8.60
2022-08-26T19:26:27.520Z,9.67
2022-08-26T19:28:54.561Z,9.37
2022-08-26T19:31:21.483Z,9.90
2022-08-26T19:33:48.483Z,10.93
2022-08-26T19:36:18.449Z,8.27
2022-08-26T19:38:45.935Z,7.97
2022-08-26T19:41:14.722Z,13.27
2022-08-26T19:43:42.373Z,9.27
2022-08-26T19:46:13.736Z,8.87
2022-08-26T19:48:43.887Z,8.73
2022-08-26T19:51:15.602Z,11.10
2022-08-26T19:53:43.989Z,11.17
2022-08-26T19:56:11.303Z,9.27
2022-08-26T19:58:38.705Z,9.90
2022-08-26T20:01:06.321Z,8.87
2022-08-26T20:03:33.969Z,7.80
2022-08-26T20:06:03.448Z,11.27
2022-08-26T20:08:30.231Z,8.13
2022-08-26T20:11:01.409Z,9.83
2022-08-26T20:13:28.388Z,7.80
2022-08-26T20:15:55.139Z,8.93
2022-08-26T20:18:48.083Z,8.50
2022-08-26T20:21:27.348Z,7.43
2022-08-26T20:24:04.865Z,7.27
2022-08-26T20:26:37.000Z,8.00
2022-08-26T20:29:05.097Z,10.50
2022-08-26T20:31:32.193Z,7.37
2022-08-26T20:33:59.050Z,10.27
2022-08-26T20:36:27.485Z,8.03
2022-08-26T20:38:55.316Z,7.37
2022-08-26T20:41:25.313Z,6.73
2022-08-26T20:43:56.107Z,8.33
2022-08-26T20:46:25.216Z,8.23
2022-08-26T20:48:53.017Z,8.10
2022-08-26T20:51:22.855Z,7.60
2022-08-26T20:53:50.525Z,7.90
2022-08-26T20:56:24.207Z,7.67
2022-08-26T20:58:53.339Z,8.87
2022-08-26T21:01:23.733Z,7.50
2022-08-26T21:03:55.194Z,6.20
2022-08-26T21:06:22.231Z,7.10
2022-08-26T21:08:49.998Z,7.97
2022-08-26T21:11:19.751Z,6.00
2022-08-26T21:14:04.499Z,7.73
2022-08-26T21:16:36.127Z,6.90
2022-08-26T21:19:08.239Z,8.13
2022-08-26T21:21:35.632Z,9.23
2022-08-26T21:24:02.642Z,6.57
2022-08-26T21:26:29.410Z,7.53
2022-08-26T21:28:56.281Z,6.00
2022-08-26T21:31:25.055Z,7.63
2022-08-26T21:33:52.274Z,8.27
2022-08-26T21:36:19.984Z,8.17
2022-08-26T21:38:48.281Z,7.10
2022-08-26T21:41:24.189Z,8.33
2022-08-26T21:43:53.811Z,6.53
2022-08-26T21:46:24.543Z,9.17
2022-08-26T21:48:55.342Z,7.50
2022-08-26T21:51:24.157Z,6.33
2022-08-26T21:53:52.801Z,7.50
2022-08-26T21:56:21.184Z,5.77
2022-08-26T21:58:48.655Z,8.27
2022-08-26T22:01:21.446Z,6.87
2022-08-26T22:03:49.614Z,7.57
2022-08-26T22:06:19.017Z,7.60
2022-08-26T22:08:45.805Z,6.80
2022-08-26T22:11:13.447Z,6.80
2022-08-26T22:13:42.440Z,6.47
2022-08-26T22:16:10.355Z,6.17
2022-08-26T22:18:38.484Z,6.67
2022-08-26T22:21:11.366Z,8.10
2022-08-26T22:23:38.953Z,6.90
2022-08-26T22:26:07.644Z,8.83
2022-08-26T22:28:35.497Z,7.80
2022-08-26T22:31:02.387Z,8.77
2022-08-26T22:33:29.502Z,7.90
2022-08-26T22:35:56.320Z,6.90
2022-08-26T22:38:23.900Z,8.10
2022-08-26T22:40:56.986Z,7.13
2022-08-26T22:43:24.962Z,9.33
2022-08-26T22:45:53.077Z,8.80
2022-08-26T22:48:23.399Z,8.23
2022-08-26T22:50:51.050Z,8.70
2022-08-26T22:53:18.704Z,9.50
2022-08-26T22:55:46.486Z,10.03
2022-08-26T22:58:15.568Z,9.33
2022-08-26T23:00:44.149Z,8.97
2022-08-26T23:03:11.842Z,12.63
2022-08-26T23:05:39.559Z,11.47
2022-08-26T23:08:07.179Z,9.93
2022-08-26T23:10:34.466Z,11.93
2022-08-26T23:13:01.723Z,10.43
2022-08-26T23:15:28.680Z,13.60
2022-08-26T23:17:58.680Z,9.40
2022-08-26T23:20:26.836Z,10.13
2022-08-26T23:22:54.869Z,10.63
2022-08-26T23:25:22.101Z,11.53
2022-08-26T23:27:51.398Z,13.07
2022-08-26T23:30:21.825Z,14.40
2022-08-26T23:32:49.094Z,11.97
2022-08-26T23:35:20.040Z,10.43
2022-08-26T23:37:50.127Z,12.50
2022-08-26T23:40:25.458Z,10.23
2022-08-26T23:42:54.217Z,11.33
2022-08-26T23:45:22.514Z,13.10
2022-08-26T23:47:52.475Z,15.10
2022-08-26T23:50:21.660Z,11.47
2022-08-26T23:53:08.735Z,12.20
2022-08-26T23:55:37.603Z,11.13
2022-08-26T23:58:05.693Z,12.60
